sensor_id;sensor_type;location;lat;lon;timestamp;pressure;altitude;pressure_sealevel;temperature;humidity
51417;BME280;50158;51.528;6.982;2022-10-17T00:00:20;67780;;;13.01;100
51417;BME280;50158;51.528;6.982;2022-10-17T00:01:20;67780;;;12.97;100
51417;BME280;50158;51.528;6.982;2022-10-17T00:02:20;67770;;;12.96;100
51417;BME280;50158;51.528;6.982;2022-10-17T00:03:20;67770;;;12.94;100
51417;BME280;50158;51.528;6.982;2022-10-17T00:04:20;67770;;;12.93;100
51417;BME280;50158;51.528;6.982;2022-10-17T00:05:20;67770;;;12.91;100
51417;BME280;50158;51.528;6.982;2022-10-17T00:06:20;67770;;;12.91;100
51417;BME280;50158;51.528;6.982;2022-10-17T00:07:36;67780;;;12.96;100
51417;BME280;50158;51.528;6.982;2022-10-17T00:08:20;67770;;;12.92;100
51417;BME280;50158;51.528;6.982;2022-10-17T00:09:20;67770;;;12.89;100
51417;BME280;50158;51.528;6.982;2022-10-17T00:10:20;67770;;;12.93;100
51417;BME280;50158;51.528;6.982;2022-10-17T00:11:21;67770;;;12.91;100
51417;BME280;50158;51.528;6.982;2022-10-17T00:12:20;67770;;;12.92;100
51417;BME280;50158;51.528;6.982;2022-10-17T00:13:20;67770;;;12.95;100
51417;BME280;50158;51.528;6.982;2022-10-17T00:14:20;67790;;;13.08;100
51417;BME280;50158;51.528;6.982;2022-10-17T00:15:20;67790;;;13.06;100
51417;BME280;50158;51.528;6.982;2022-10-17T00:16:28;67780;;;13.05;100
51417;BME280;50158;51.528;6.982;2022-10-17T00:17:20;67780;;;12.99;100
51417;BME280;50158;51.528;6.982;2022-10-17T00:18:20;67770;;;12.92;100
51417;BME280;50158;51.528;6.982;2022-10-17T00:19:20;67770;;;12.9;100
51417;BME280;50158;51.528;6.982;2022-10-17T00:20:20;67770;;;12.88;100
51417;BME280;50158;51.528;6.982;2022-10-17T00:21:20;67770;;;12.87;100
51417;BME280;50158;51.528;6.982;2022-10-17T00:22:20;67760;;;12.85;100
51417;BME280;50158;51.528;6.982;2022-10-17T00:23:20;67760;;;12.83;100
51417;BME280;50158;51.528;6.982;2022-10-17T00:24:20;67760;;;12.84;100
51417;BME280;50158;51.528;6.982;2022-10-17T00:25:20;67780;;;12.97;100
51417;BME280;50158;51.528;6.982;2022-10-17T00:26:20;67770;;;12.94;100
51417;BME280;50158;51.528;6.982;2022-10-17T00:27:20;67770;;;12.91;100
51417;BME280;50158;51.528;6.982;2022-10-17T00:28:20;67760;;;12.86;100
51417;BME280;50158;51.528;6.982;2022-10-17T00:29:20;67760;;;12.85;100
51417;BME280;50158;51.528;6.982;2022-10-17T00:30:20;67760;;;12.81;100
51417;BME280;50158;51.528;6.982;2022-10-17T00:31:20;67750;;;12.76;100
51417;BME280;50158;51.528;6.982;2022-10-17T00:32:20;67750;;;12.74;100
51417;BME280;50158;51.528;6.982;2022-10-17T00:33:20;67750;;;12.71;100
51417;BME280;50158;51.528;6.982;2022-10-17T00:34:20;67750;;;12.7;100
51417;BME280;50158;51.528;6.982;2022-10-17T00:35:20;67750;;;12.72;100
51417;BME280;50158;51.528;6.982;2022-10-17T00:37:20;67750;;;12.69;100
51417;BME280;50158;51.528;6.982;2022-10-17T00:38:20;67740;;;12.66;100
51417;BME280;50158;51.528;6.982;2022-10-17T00:39:20;67740;;;12.65;100
51417;BME280;50158;51.528;6.982;2022-10-17T00:40:20;67740;;;12.66;100
51417;BME280;50158;51.528;6.982;2022-10-17T00:42:20;67740;;;12.63;100
51417;BME280;50158;51.528;6.982;2022-10-17T00:43:56;67740;;;12.62;100
51417;BME280;50158;51.528;6.982;2022-10-17T00:44:56;67740;;;12.62;100
51417;BME280;50158;51.528;6.982;2022-10-17T00:46:06;67740;;;12.64;100
51417;BME280;50158;51.528;6.982;2022-10-17T00:47:21;67750;;;12.7;100
51417;BME280;50158;51.528;6.982;2022-10-17T00:48:35;67740;;;12.66;100
51417;BME280;50158;51.528;6.982;2022-10-17T00:49:14;67740;;;12.63;100
51417;BME280;50158;51.528;6.982;2022-10-17T00:49:51;67740;;;12.66;100
51417;BME280;50158;51.528;6.982;2022-10-17T00:50:30;67740;;;12.67;100
51417;BME280;50158;51.528;6.982;2022-10-17T00:51:22;67740;;;12.65;100
51417;BME280;50158;51.528;6.982;2022-10-17T00:52:20;67740;;;12.64;100
51417;BME280;50158;51.528;6.982;2022-10-17T00:53:20;67740;;;12.65;100
51417;BME280;50158;51.528;6.982;2022-10-17T00:54:22;67740;;;12.68;100
51417;BME280;50158;51.528;6.982;2022-10-17T00:55:22;67750;;;12.71;100
51417;BME280;50158;51.528;6.982;2022-10-17T00:56:20;67750;;;12.73;100
51417;BME280;50158;51.528;6.982;2022-10-17T00:57:20;67750;;;12.74;100
51417;BME280;50158;51.528;6.982;2022-10-17T00:58:20;67750;;;12.73;100
51417;BME280;50158;51.528;6.982;2022-10-17T00:59:20;67760;;;12.86;100
51417;BME280;50158;51.528;6.982;2022-10-17T01:00:20;67760;;;12.83;100
51417;BME280;50158;51.528;6.982;2022-10-17T01:01:20;67760;;;12.81;100
51417;BME280;50158;51.528;6.982;2022-10-17T01:02:20;67760;;;12.82;100
51417;BME280;50158;51.528;6.982;2022-10-17T01:03:20;67760;;;12.78;100
51417;BME280;50158;51.528;6.982;2022-10-17T01:04:20;67760;;;12.78;100
51417;BME280;50158;51.528;6.982;2022-10-17T01:05:20;67760;;;12.8;100
51417;BME280;50158;51.528;6.982;2022-10-17T01:06:20;67750;;;12.76;100
51417;BME280;50158;51.528;6.982;2022-10-17T01:07:42;67750;;;12.75;100
51417;BME280;50158;51.528;6.982;2022-10-17T01:08:20;67750;;;12.75;100
51417;BME280;50158;51.528;6.982;2022-10-17T01:09:20;67750;;;12.75;100
51417;BME280;50158;51.528;6.982;2022-10-17T01:10:20;67760;;;12.77;100
51417;BME280;50158;51.528;6.982;2022-10-17T01:12:24;67760;;;12.82;100
51417;BME280;50158;51.528;6.982;2022-10-17T01:13:22;67760;;;12.82;100
51417;BME280;50158;51.528;6.982;2022-10-17T01:14:39;67760;;;12.82;100
51417;BME280;50158;51.528;6.982;2022-10-17T01:15:23;67760;;;12.86;100
51417;BME280;50158;51.528;6.982;2022-10-17T01:16:53;67760;;;12.83;100
51417;BME280;50158;51.528;6.982;2022-10-17T01:17:27;67760;;;12.82;100
51417;BME280;50158;51.528;6.982;2022-10-17T01:18:56;67770;;;12.87;100
51417;BME280;50158;51.528;6.982;2022-10-17T01:20:25;67770;;;12.9;100
51417;BME280;50158;51.528;6.982;2022-10-17T01:21:24;67770;;;12.95;100
51417;BME280;50158;51.528;6.982;2022-10-17T01:22:22;67770;;;12.89;100
51417;BME280;50158;51.528;6.982;2022-10-17T01:23:24;67760;;;12.81;100
51417;BME280;50158;51.528;6.982;2022-10-17T01:25:27;67760;;;12.78;100
51417;BME280;50158;51.528;6.982;2022-10-17T01:26:39;67760;;;12.81;100
51417;BME280;50158;51.528;6.982;2022-10-17T01:27:35;67750;;;12.7;100
51417;BME280;50158;51.528;6.982;2022-10-17T01:30:18;67740;;;12.61;100
51417;BME280;50158;51.528;6.982;2022-10-17T01:31:31;67740;;;12.65;100
51417;BME280;50158;51.528;6.982;2022-10-17T01:32:28;67740;;;12.62;100
51417;BME280;50158;51.528;6.982;2022-10-17T01:33:42;67740;;;12.67;100
51417;BME280;50158;51.528;6.982;2022-10-17T01:35:41;67750;;;12.75;100
51417;BME280;50158;51.528;6.982;2022-10-17T01:35:55;67760;;;12.78;100
51417;BME280;50158;51.528;6.982;2022-10-17T01:37:45;67750;;;12.71;100
51417;BME280;50158;51.528;6.982;2022-10-17T01:40:06;67740;;;12.66;100
51417;BME280;50158;51.528;6.982;2022-10-17T01:40:28;67740;;;12.66;100
51417;BME280;50158;51.528;6.982;2022-10-17T01:41:13;67750;;;12.72;100
51417;BME280;50158;51.528;6.982;2022-10-17T01:41:36;67750;;;12.7;100
51417;BME280;50158;51.528;6.982;2022-10-17T01:42:06;67760;;;12.78;100
51417;BME280;50158;51.528;6.982;2022-10-17T01:42:23;67750;;;12.73;100
51417;BME280;50158;51.528;6.982;2022-10-17T01:43:06;67750;;;12.71;100
51417;BME280;50158;51.528;6.982;2022-10-17T01:43:36;67750;;;12.72;100
51417;BME280;50158;51.528;6.982;2022-10-17T01:44:22;67740;;;12.65;100
51417;BME280;50158;51.528;6.982;2022-10-17T01:45:21;67740;;;12.6;100
51417;BME280;50158;51.528;6.982;2022-10-17T01:46:23;67740;;;12.6;100
51417;BME280;50158;51.528;6.982;2022-10-17T01:47:20;67730;;;12.55;100
51417;BME280;50158;51.528;6.982;2022-10-17T01:48:21;67730;;;12.53;100
51417;BME280;50158;51.528;6.982;2022-10-17T01:49:21;67730;;;12.57;100
51417;BME280;50158;51.528;6.982;2022-10-17T01:50:22;67730;;;12.58;100
51417;BME280;50158;51.528;6.982;2022-10-17T01:51:21;67740;;;12.62;100
51417;BME280;50158;51.528;6.982;2022-10-17T01:52:29;67730;;;12.56;100
51417;BME280;50158;51.528;6.982;2022-10-17T01:53:23;67730;;;12.51;100
51417;BME280;50158;51.528;6.982;2022-10-17T01:54:21;67720;;;12.5;100
51417;BME280;50158;51.528;6.982;2022-10-17T01:55:21;67720;;;12.49;100
51417;BME280;50158;51.528;6.982;2022-10-17T01:56:20;67730;;;12.58;100
51417;BME280;50158;51.528;6.982;2022-10-17T01:57:37;67730;;;12.53;100
51417;BME280;50158;51.528;6.982;2022-10-17T01:58:21;67730;;;12.54;100
51417;BME280;50158;51.528;6.982;2022-10-17T01:59:21;67720;;;12.49;100
51417;BME280;50158;51.528;6.982;2022-10-17T02:00:21;67720;;;12.43;100
51417;BME280;50158;51.528;6.982;2022-10-17T02:01:20;67720;;;12.41;100
51417;BME280;50158;51.528;6.982;2022-10-17T02:02:20;67710;;;12.4;100
51417;BME280;50158;51.528;6.982;2022-10-17T02:03:20;67720;;;12.42;100
51417;BME280;50158;51.528;6.982;2022-10-17T02:04:20;67720;;;12.41;100
51417;BME280;50158;51.528;6.982;2022-10-17T02:05:21;67720;;;12.44;100
51417;BME280;50158;51.528;6.982;2022-10-17T02:06:20;67720;;;12.41;100
51417;BME280;50158;51.528;6.982;2022-10-17T02:07:12;67710;;;12.35;100
51417;BME280;50158;51.528;6.982;2022-10-17T02:08:24;67710;;;12.35;100
51417;BME280;50158;51.528;6.982;2022-10-17T02:09:22;67710;;;12.32;100
51417;BME280;50158;51.528;6.982;2022-10-17T02:10:25;67720;;;12.43;100
51417;BME280;50158;51.528;6.982;2022-10-17T02:11:20;67710;;;12.38;100
51417;BME280;50158;51.528;6.982;2022-10-17T02:12:24;67710;;;12.36;100
51417;BME280;50158;51.528;6.982;2022-10-17T02:13:56;67710;;;12.31;100
51417;BME280;50158;51.528;6.982;2022-10-17T02:14:22;67710;;;12.4;100
51417;BME280;50158;51.528;6.982;2022-10-17T02:16:26;67710;;;12.32;100
51417;BME280;50158;51.528;6.982;2022-10-17T02:17:41;67720;;;12.41;100
51417;BME280;50158;51.528;6.982;2022-10-17T02:18:25;67720;;;12.42;100
51417;BME280;50158;51.528;6.982;2022-10-17T02:19:39;67710;;;12.35;100
51417;BME280;50158;51.528;6.982;2022-10-17T02:20:30;67700;;;12.29;100
51417;BME280;50158;51.528;6.982;2022-10-17T02:21:23;67710;;;12.35;100
51417;BME280;50158;51.528;6.982;2022-10-17T02:22:26;67710;;;12.33;100
51417;BME280;50158;51.528;6.982;2022-10-17T02:23:23;67710;;;12.34;100
51417;BME280;50158;51.528;6.982;2022-10-17T02:24:54;67720;;;12.43;100
51417;BME280;50158;51.528;6.982;2022-10-17T02:25:37;67730;;;12.52;100
51417;BME280;50158;51.528;6.982;2022-10-17T02:26:23;67730;;;12.51;100
51417;BME280;50158;51.528;6.982;2022-10-17T02:27:39;67720;;;12.46;100
51417;BME280;50158;51.528;6.982;2022-10-17T02:28:21;67710;;;12.36;100
51417;BME280;50158;51.528;6.982;2022-10-17T02:29:21;67710;;;12.36;100
51417;BME280;50158;51.528;6.982;2022-10-17T02:30:36;67710;;;12.35;100
51417;BME280;50158;51.528;6.982;2022-10-17T02:32:23;67710;;;12.36;100
51417;BME280;50158;51.528;6.982;2022-10-17T02:33:28;67720;;;12.41;100
51417;BME280;50158;51.528;6.982;2022-10-17T02:34:24;67730;;;12.52;100
51417;BME280;50158;51.528;6.982;2022-10-17T02:35:20;67720;;;12.45;100
51417;BME280;50158;51.528;6.982;2022-10-17T02:36:21;67720;;;12.43;100
51417;BME280;50158;51.528;6.982;2022-10-17T02:37:21;67720;;;12.43;100
51417;BME280;50158;51.528;6.982;2022-10-17T02:38:20;67720;;;12.42;100
51417;BME280;50158;51.528;6.982;2022-10-17T02:39:20;67720;;;12.42;100
51417;BME280;50158;51.528;6.982;2022-10-17T02:40:20;67720;;;12.47;100
51417;BME280;50158;51.528;6.982;2022-10-17T02:41:20;67730;;;12.54;100
51417;BME280;50158;51.528;6.982;2022-10-17T02:42:20;67720;;;12.47;100
51417;BME280;50158;51.528;6.982;2022-10-17T02:43:20;67720;;;12.49;100
51417;BME280;50158;51.528;6.982;2022-10-17T02:44:20;67740;;;12.61;100
51417;BME280;50158;51.528;6.982;2022-10-17T02:45:20;67730;;;12.58;100
51417;BME280;50158;51.528;6.982;2022-10-17T02:46:20;67730;;;12.58;100
51417;BME280;50158;51.528;6.982;2022-10-17T02:47:21;67750;;;12.72;100
51417;BME280;50158;51.528;6.982;2022-10-17T02:48:24;67740;;;12.64;100
51417;BME280;50158;51.528;6.982;2022-10-17T02:49:21;67740;;;12.61;100
51417;BME280;50158;51.528;6.982;2022-10-17T02:50:21;67750;;;12.71;100
51417;BME280;50158;51.528;6.982;2022-10-17T02:52:26;67740;;;12.66;100
51417;BME280;50158;51.528;6.982;2022-10-17T02:52:27;67740;;;12.68;100
51417;BME280;50158;51.528;6.982;2022-10-17T02:53:24;67740;;;12.66;100
51417;BME280;50158;51.528;6.982;2022-10-17T02:54:21;67750;;;12.72;100
51417;BME280;50158;51.528;6.982;2022-10-17T02:56:20;67740;;;12.67;100
51417;BME280;50158;51.528;6.982;2022-10-17T02:57:24;67740;;;12.64;100
51417;BME280;50158;51.528;6.982;2022-10-17T02:58:21;67740;;;12.65;100
51417;BME280;50158;51.528;6.982;2022-10-17T02:59:20;67740;;;12.61;100
51417;BME280;50158;51.528;6.982;2022-10-17T03:00:20;67730;;;12.58;100
51417;BME280;50158;51.528;6.982;2022-10-17T03:01:20;67730;;;12.59;100
51417;BME280;50158;51.528;6.982;2022-10-17T03:02:20;67740;;;12.6;100
51417;BME280;50158;51.528;6.982;2022-10-17T03:03:21;67740;;;12.66;100
51417;BME280;50158;51.528;6.982;2022-10-17T03:04:20;67730;;;12.59;100
51417;BME280;50158;51.528;6.982;2022-10-17T03:05:21;67730;;;12.54;100
51417;BME280;50158;51.528;6.982;2022-10-17T03:06:20;67730;;;12.54;100
51417;BME280;50158;51.528;6.982;2022-10-17T03:07:20;67740;;;12.61;100
51417;BME280;50158;51.528;6.982;2022-10-17T03:08:20;67730;;;12.58;100
51417;BME280;50158;51.528;6.982;2022-10-17T03:09:20;67730;;;12.55;100
51417;BME280;50158;51.528;6.982;2022-10-17T03:10:20;67740;;;12.62;100
51417;BME280;50158;51.528;6.982;2022-10-17T03:11:20;67740;;;12.66;100
51417;BME280;50158;51.528;6.982;2022-10-17T03:12:20;67740;;;12.62;100
51417;BME280;50158;51.528;6.982;2022-10-17T03:13:20;67730;;;12.58;100
51417;BME280;50158;51.528;6.982;2022-10-17T03:14:20;67740;;;12.6;100
51417;BME280;50158;51.528;6.982;2022-10-17T03:15:20;67740;;;12.64;100
51417;BME280;50158;51.528;6.982;2022-10-17T03:16:20;67740;;;12.63;100
51417;BME280;50158;51.528;6.982;2022-10-17T03:17:20;67740;;;12.61;100
51417;BME280;50158;51.528;6.982;2022-10-17T03:18:20;67750;;;12.7;100
51417;BME280;50158;51.528;6.982;2022-10-17T03:19:20;67740;;;12.63;100
51417;BME280;50158;51.528;6.982;2022-10-17T03:20:20;67740;;;12.66;100
51417;BME280;50158;51.528;6.982;2022-10-17T03:21:20;67740;;;12.61;100
51417;BME280;50158;51.528;6.982;2022-10-17T03:22:20;67740;;;12.67;100
51417;BME280;50158;51.528;6.982;2022-10-17T03:23:20;67740;;;12.64;100
51417;BME280;50158;51.528;6.982;2022-10-17T03:24:20;67750;;;12.7;100
51417;BME280;50158;51.528;6.982;2022-10-17T03:25:20;67750;;;12.68;100
51417;BME280;50158;51.528;6.982;2022-10-17T03:26:20;67740;;;12.66;100
51417;BME280;50158;51.528;6.982;2022-10-17T03:27:20;67740;;;12.67;100
51417;BME280;50158;51.528;6.982;2022-10-17T03:28:20;67760;;;12.78;100
51417;BME280;50158;51.528;6.982;2022-10-17T03:29:20;67750;;;12.74;100
51417;BME280;50158;51.528;6.982;2022-10-17T03:30:20;67760;;;12.78;100
51417;BME280;50158;51.528;6.982;2022-10-17T03:31:20;67770;;;12.88;100
51417;BME280;50158;51.528;6.982;2022-10-17T03:32:20;67760;;;12.81;100
51417;BME280;50158;51.528;6.982;2022-10-17T03:33:20;67780;;;12.98;100
51417;BME280;50158;51.528;6.982;2022-10-17T03:34:20;67770;;;12.89;100
51417;BME280;50158;51.528;6.982;2022-10-17T03:35:20;67770;;;12.92;100
51417;BME280;50158;51.528;6.982;2022-10-17T03:36:20;67770;;;12.95;100
51417;BME280;50158;51.528;6.982;2022-10-17T03:37:20;67760;;;12.85;100
51417;BME280;50158;51.528;6.982;2022-10-17T03:38:20;67760;;;12.8;100
51417;BME280;50158;51.528;6.982;2022-10-17T03:39:20;67760;;;12.81;100
51417;BME280;50158;51.528;6.982;2022-10-17T03:40:20;67760;;;12.8;100
51417;BME280;50158;51.528;6.982;2022-10-17T03:41:20;67760;;;12.83;100
51417;BME280;50158;51.528;6.982;2022-10-17T03:42:20;67770;;;12.88;100
51417;BME280;50158;51.528;6.982;2022-10-17T03:43:20;67780;;;12.96;100
51417;BME280;50158;51.528;6.982;2022-10-17T03:44:20;67770;;;12.91;100
51417;BME280;50158;51.528;6.982;2022-10-17T03:45:20;67770;;;12.92;100
51417;BME280;50158;51.528;6.982;2022-10-17T03:46:20;67780;;;12.97;100
51417;BME280;50158;51.528;6.982;2022-10-17T03:47:20;67770;;;12.92;100
51417;BME280;50158;51.528;6.982;2022-10-17T03:48:20;67780;;;12.99;100
51417;BME280;50158;51.528;6.982;2022-10-17T03:49:20;67770;;;12.94;100
51417;BME280;50158;51.528;6.982;2022-10-17T03:50:20;67780;;;13.05;100
51417;BME280;50158;51.528;6.982;2022-10-17T03:51:20;67780;;;13.03;100
51417;BME280;50158;51.528;6.982;2022-10-17T03:52:20;67780;;;13.02;100
51417;BME280;50158;51.528;6.982;2022-10-17T03:53:20;67800;;;13.18;100
51417;BME280;50158;51.528;6.982;2022-10-17T03:54:20;67790;;;13.13;100
51417;BME280;50158;51.528;6.982;2022-10-17T03:55:20;67790;;;13.1;100
51417;BME280;50158;51.528;6.982;2022-10-17T03:56:21;67810;;;13.26;100
51417;BME280;50158;51.528;6.982;2022-10-17T03:57:20;67810;;;13.27;100
51417;BME280;50158;51.528;6.982;2022-10-17T03:58:20;67820;;;13.36;100
51417;BME280;50158;51.528;6.982;2022-10-17T03:59:20;67820;;;13.39;100
51417;BME280;50158;51.528;6.982;2022-10-17T04:00:20;67820;;;13.41;100
51417;BME280;50158;51.528;6.982;2022-10-17T04:01:20;67810;;;13.33;100
51417;BME280;50158;51.528;6.982;2022-10-17T04:02:20;67820;;;13.42;100
51417;BME280;50158;51.528;6.982;2022-10-17T04:03:20;67820;;;13.36;100
51417;BME280;50158;51.528;6.982;2022-10-17T04:04:20;67820;;;13.37;100
51417;BME280;50158;51.528;6.982;2022-10-17T04:05:20;67830;;;13.45;100
51417;BME280;50158;51.528;6.982;2022-10-17T04:06:20;67840;;;13.51;100
51417;BME280;50158;51.528;6.982;2022-10-17T04:07:20;67840;;;13.52;100
51417;BME280;50158;51.528;6.982;2022-10-17T04:08:20;67830;;;13.49;100
51417;BME280;50158;51.528;6.982;2022-10-17T04:09:20;67830;;;13.46;100
51417;BME280;50158;51.528;6.982;2022-10-17T04:10:20;67830;;;13.48;100
51417;BME280;50158;51.528;6.982;2022-10-17T04:11:20;67850;;;13.65;100
51417;BME280;50158;51.528;6.982;2022-10-17T04:13:20;67850;;;13.62;100
51417;BME280;50158;51.528;6.982;2022-10-17T04:14:20;67840;;;13.58;100
51417;BME280;50158;51.528;6.982;2022-10-17T04:15:20;67840;;;13.54;100
51417;BME280;50158;51.528;6.982;2022-10-17T04:16:20;67840;;;13.55;100
51417;BME280;50158;51.528;6.982;2022-10-17T04:17:20;67850;;;13.6;100
51417;BME280;50158;51.528;6.982;2022-10-17T04:18:28;67850;;;13.67;100
51417;BME280;50158;51.528;6.982;2022-10-17T04:19:20;67850;;;13.66;100
51417;BME280;50158;51.528;6.982;2022-10-17T04:20:20;67840;;;13.58;100
51417;BME280;50158;51.528;6.982;2022-10-17T04:21:20;67860;;;13.73;100
51417;BME280;50158;51.528;6.982;2022-10-17T04:22:20;67860;;;13.7;100
51417;BME280;50158;51.528;6.982;2022-10-17T04:23:20;67850;;;13.63;100
51417;BME280;50158;51.528;6.982;2022-10-17T04:24:20;67840;;;13.6;100
51417;BME280;50158;51.528;6.982;2022-10-17T04:25:20;67840;;;13.6;100
51417;BME280;50158;51.528;6.982;2022-10-17T04:26:20;67850;;;13.61;100
51417;BME280;50158;51.528;6.982;2022-10-17T04:27:20;67840;;;13.6;100
51417;BME280;50158;51.528;6.982;2022-10-17T04:28:30;67840;;;13.56;100
51417;BME280;50158;51.528;6.982;2022-10-17T04:29:20;67840;;;13.58;100
51417;BME280;50158;51.528;6.982;2022-10-17T04:30:20;67840;;;13.54;100
51417;BME280;50158;51.528;6.982;2022-10-17T04:31:20;67840;;;13.59;100
51417;BME280;50158;51.528;6.982;2022-10-17T04:32:20;67850;;;13.63;100
51417;BME280;50158;51.528;6.982;2022-10-17T04:33:20;67850;;;13.62;100
51417;BME280;50158;51.528;6.982;2022-10-17T04:34:20;67850;;;13.66;100
51417;BME280;50158;51.528;6.982;2022-10-17T04:35:20;67850;;;13.63;100
51417;BME280;50158;51.528;6.982;2022-10-17T04:36:20;67850;;;13.65;100
51417;BME280;50158;51.528;6.982;2022-10-17T04:37:20;67850;;;13.68;100
51417;BME280;50158;51.528;6.982;2022-10-17T04:38:20;67860;;;13.78;100
51417;BME280;50158;51.528;6.982;2022-10-17T04:39:20;67860;;;13.78;100
51417;BME280;50158;51.528;6.982;2022-10-17T04:40:20;67860;;;13.76;100
51417;BME280;50158;51.528;6.982;2022-10-17T04:41:20;67860;;;13.74;100
51417;BME280;50158;51.528;6.982;2022-10-17T04:42:20;67870;;;13.81;100
51417;BME280;50158;51.528;6.982;2022-10-17T04:43:20;67860;;;13.78;100
51417;BME280;50158;51.528;6.982;2022-10-17T04:44:20;67860;;;13.77;100
51417;BME280;50158;51.528;6.982;2022-10-17T04:45:20;67860;;;13.78;100
51417;BME280;50158;51.528;6.982;2022-10-17T04:47:20;67880;;;13.91;100
51417;BME280;50158;51.528;6.982;2022-10-17T04:48:20;67880;;;13.93;100
51417;BME280;50158;51.528;6.982;2022-10-17T04:49:20;67880;;;13.94;100
51417;BME280;50158;51.528;6.982;2022-10-17T04:50:20;67880;;;13.96;100
51417;BME280;50158;51.528;6.982;2022-10-17T04:51:20;67880;;;13.97;100
51417;BME280;50158;51.528;6.982;2022-10-17T04:52:20;67880;;;13.94;100
51417;BME280;50158;51.528;6.982;2022-10-17T04:53:20;67880;;;13.95;100
51417;BME280;50158;51.528;6.982;2022-10-17T04:54:20;67880;;;13.92;100
51417;BME280;50158;51.528;6.982;2022-10-17T04:56:21;67890;;;14.02;100
51417;BME280;50158;51.528;6.982;2022-10-17T04:57:20;67890;;;14.03;100
51417;BME280;50158;51.528;6.982;2022-10-17T04:58:20;67890;;;13.99;100
51417;BME280;50158;51.528;6.982;2022-10-17T04:59:20;67880;;;13.95;100
51417;BME280;50158;51.528;6.982;2022-10-17T05:00:20;67880;;;13.95;100
51417;BME280;50158;51.528;6.982;2022-10-17T05:01:20;67890;;;13.98;100
51417;BME280;50158;51.528;6.982;2022-10-17T05:02:20;67890;;;14.01;100
51417;BME280;50158;51.528;6.982;2022-10-17T05:03:20;67910;;;14.18;100
51417;BME280;50158;51.528;6.982;2022-10-17T05:04:20;67900;;;14.11;100
51417;BME280;50158;51.528;6.982;2022-10-17T05:05:20;67900;;;14.1;100
51417;BME280;50158;51.528;6.982;2022-10-17T05:06:21;67900;;;14.12;100
51417;BME280;50158;51.528;6.982;2022-10-17T05:07:20;67910;;;14.2;100
51417;BME280;50158;51.528;6.982;2022-10-17T05:08:20;67920;;;14.26;100
51417;BME280;50158;51.528;6.982;2022-10-17T05:09:20;67910;;;14.19;100
51417;BME280;50158;51.528;6.982;2022-10-17T05:10:20;67900;;;14.14;100
51417;BME280;50158;51.528;6.982;2022-10-17T05:11:22;67900;;;14.15;100
51417;BME280;50158;51.528;6.982;2022-10-17T05:12:20;67900;;;14.16;100
51417;BME280;50158;51.528;6.982;2022-10-17T05:13:20;67920;;;14.29;100
51417;BME280;50158;51.528;6.982;2022-10-17T05:14:20;67930;;;14.37;100
51417;BME280;50158;51.528;6.982;2022-10-17T05:15:20;67930;;;14.41;100
51417;BME280;50158;51.528;6.982;2022-10-17T05:16:20;67930;;;14.39;100
51417;BME280;50158;51.528;6.982;2022-10-17T05:17:20;67920;;;14.34;100
51417;BME280;50158;51.528;6.982;2022-10-17T05:18:20;67930;;;14.38;100
51417;BME280;50158;51.528;6.982;2022-10-17T05:19:20;67920;;;14.34;100
51417;BME280;50158;51.528;6.982;2022-10-17T05:20:20;67930;;;14.43;100
51417;BME280;50158;51.528;6.982;2022-10-17T05:21:20;67920;;;14.34;100
51417;BME280;50158;51.528;6.982;2022-10-17T05:23:52;67930;;;14.41;100
51417;BME280;50158;51.528;6.982;2022-10-17T05:25:07;67930;;;14.37;100
51417;BME280;50158;51.528;6.982;2022-10-17T05:26:21;67930;;;14.43;100
51417;BME280;50158;51.528;6.982;2022-10-17T05:27:35;67940;;;14.44;100
51417;BME280;50158;51.528;6.982;2022-10-17T05:28:51;67940;;;14.49;100
51417;BME280;50158;51.528;6.982;2022-10-17T05:30:42;67930;;;14.41;100
51417;BME280;50158;51.528;6.982;2022-10-17T05:32:33;67950;;;14.55;100
51417;BME280;50158;51.528;6.982;2022-10-17T05:33:10;67950;;;14.55;100
51417;BME280;50158;51.528;6.982;2022-10-17T05:33:47;67940;;;14.48;100
51417;BME280;50158;51.528;6.982;2022-10-17T05:35:04;67950;;;14.6;100
51417;BME280;50158;51.528;6.982;2022-10-17T05:35:22;67950;;;14.53;100
51417;BME280;50158;51.528;6.982;2022-10-17T05:36:01;67950;;;14.62;100
51417;BME280;50158;51.528;6.982;2022-10-17T05:36:38;67960;;;14.64;100
51417;BME280;50158;51.528;6.982;2022-10-17T05:37:20;67950;;;14.61;100
51417;BME280;50158;51.528;6.982;2022-10-17T05:38:16;67960;;;14.64;100
51417;BME280;50158;51.528;6.982;2022-10-17T05:39:20;67950;;;14.61;100
51417;BME280;50158;51.528;6.982;2022-10-17T05:40:20;67950;;;14.63;100
51417;BME280;50158;51.528;6.982;2022-10-17T05:41:20;67960;;;14.63;100
51417;BME280;50158;51.528;6.982;2022-10-17T05:42:20;67960;;;14.71;100
51417;BME280;50158;51.528;6.982;2022-10-17T05:43:20;67960;;;14.64;100
51417;BME280;50158;51.528;6.982;2022-10-17T05:44:20;67980;;;14.85;100
51417;BME280;50158;51.528;6.982;2022-10-17T05:45:20;67980;;;14.86;100
51417;BME280;50158;51.528;6.982;2022-10-17T05:46:20;67980;;;14.89;100
51417;BME280;50158;51.528;6.982;2022-10-17T05:47:20;68000;;;15.04;100
51417;BME280;50158;51.528;6.982;2022-10-17T05:48:20;67990;;;14.99;100
51417;BME280;50158;51.528;6.982;2022-10-17T05:49:20;67990;;;14.94;100
51417;BME280;50158;51.528;6.982;2022-10-17T05:50:20;68000;;;14.99;100
51417;BME280;50158;51.528;6.982;2022-10-17T05:51:20;67990;;;14.94;100
51417;BME280;50158;51.528;6.982;2022-10-17T05:52:20;67990;;;14.93;100
51417;BME280;50158;51.528;6.982;2022-10-17T05:53:20;67980;;;14.84;100
51417;BME280;50158;51.528;6.982;2022-10-17T05:54:20;67980;;;14.85;100